createdAt,value
2018-04-24T00:01:37.841Z,41.40
2018-04-24T00:04:07.781Z,60.03
2018-04-24T00:06:38.683Z,71.20
2018-04-24T00:09:07.415Z,47.47
2018-04-24T00:11:35.676Z,59.13
2018-04-24T00:14:05.364Z,78.33
2018-04-24T00:16:34.258Z,45.07
2018-04-24T00:19:07.620Z,53.23
2018-04-24T00:21:36.976Z,91.40
2018-04-24T00:24:05.468Z,53.47
2018-04-24T00:26:34.648Z,47.47
2018-04-24T00:29:03.386Z,43.53
2018-04-24T00:31:31.617Z,60.27
2018-04-24T00:34:01.069Z,55.20
2018-04-24T00:36:30.047Z,44.00
2018-04-24T00:38:59.991Z,69.77
2018-04-24T00:41:30.910Z,70.90
2018-04-24T00:44:01.241Z,65.17
2018-04-24T00:46:31.029Z,45.07
2018-04-24T00:49:01.660Z,25.90
2018-04-24T00:51:39.407Z,74.53
2018-04-24T00:54:11.953Z,32.73
2018-04-24T00:56:47.013Z,33.17
2018-04-24T00:59:15.908Z,44.07
2018-04-24T01:01:51.353Z,37.03
2018-04-24T01:20:04.501Z,57.10
2018-04-24T01:22:33.897Z,55.90
2018-04-24T01:25:07.099Z,50.80
2018-04-24T01:27:37.299Z,60.37
2018-04-24T01:30:14.541Z,56.60
2018-04-24T01:32:47.200Z,54.77
2018-04-24T01:35:18.171Z,48.73
2018-04-24T01:37:48.852Z,60.23
2018-04-24T01:40:26.274Z,60.07
2018-04-24T01:42:57.464Z,56.80
2018-04-24T01:45:27.909Z,70.40
2018-04-24T01:47:59.627Z,49.37
2018-04-24T01:50:32.263Z,40.53
2018-04-24T01:53:03.342Z,34.50
2018-04-24T01:55:36.563Z,33.90
2018-04-24T02:01:05.831Z,41.53
2018-04-24T02:05:24.861Z,39.07
2018-04-24T02:07:55.709Z,43.00
2018-04-24T02:10:25.861Z,51.53
2018-04-24T02:12:57.468Z,41.30
2018-04-24T02:15:28.490Z,31.97
2018-04-24T02:17:58.940Z,35.33
2018-04-24T02:20:33.824Z,39.10
2018-04-24T02:23:04.116Z,40.03
2018-04-24T02:28:31.515Z,38.73
2018-04-24T02:31:00.504Z,39.30
2018-04-24T02:36:25.035Z,46.40
2018-04-24T02:38:54.017Z,53.93
2018-04-24T02:41:25.963Z,44.07
2018-04-24T02:46:45.127Z,54.05
2018-04-24T02:49:14.128Z,40.63
2018-04-24T02:51:43.495Z,51.00
2018-04-24T02:54:17.288Z,39.80
2018-04-24T03:17:02.405Z,35.87
2018-04-24T03:19:34.892Z,30.93
2018-04-24T03:22:06.797Z,30.27
2018-04-24T03:24:37.395Z,33.33
2018-04-24T03:27:14.937Z,29.00
2018-04-24T03:29:46.397Z,26.10
2018-04-24T03:32:17.911Z,23.87
2018-04-24T03:34:49.618Z,26.73
2018-04-24T03:37:21.622Z,22.77
2018-04-24T03:40:00.417Z,25.93
2018-04-24T03:42:30.966Z,28.53
2018-04-24T03:45:02.887Z,22.70
2018-04-24T03:47:35.774Z,19.23
2018-04-24T03:50:14.329Z,20.83
2018-04-24T03:52:48.064Z,21.57
2018-04-24T03:55:19.271Z,31.97
2018-04-24T03:57:54.434Z,29.93
2018-04-24T04:00:29.044Z,33.50
2018-04-24T04:03:05.406Z,28.43
2018-04-24T04:05:36.183Z,28.17
2018-04-24T04:08:10.242Z,27.70
2018-04-24T04:10:43.999Z,34.80
2018-04-24T04:16:25.017Z,30.70
2018-04-24T04:19:06.574Z,31.10
2018-04-24T04:33:28.014Z,28.83
2018-04-24T04:35:57.646Z,32.60
2018-04-24T04:38:41.960Z,32.30
2018-04-24T04:41:17.269Z,35.63
2018-04-24T04:58:19.296Z,32.93
2018-04-24T05:00:51.961Z,32.77
2018-04-24T05:03:34.182Z,34.60
2018-04-24T05:06:14.572Z,33.97
2018-04-24T05:08:54.266Z,34.63
2018-04-24T05:14:28.088Z,33.70
2018-04-24T05:17:10.335Z,33.10
2018-04-24T05:22:21.862Z,33.67
2018-04-24T05:25:00.239Z,33.70
2018-04-24T05:33:06.270Z,36.60
2018-04-24T05:35:37.574Z,34.10
2018-04-24T05:38:06.858Z,38.57
2018-04-24T05:40:35.913Z,36.20
2018-04-24T05:43:05.694Z,36.40
2018-04-24T05:45:34.145Z,37.13
2018-04-24T05:48:02.289Z,35.70
2018-04-24T05:50:32.739Z,36.63
2018-04-24T05:53:02.260Z,40.10
2018-04-24T05:55:31.396Z,51.10
2018-04-24T05:58:00.051Z,51.25
2018-04-24T06:00:28.413Z,48.45
2018-04-24T06:02:56.587Z,52.97
2018-04-24T06:05:24.979Z,47.90
2018-04-24T06:07:56.048Z,42.97
2018-04-24T06:10:24.135Z,44.57
2018-04-24T06:12:52.571Z,43.33
2018-04-24T06:15:21.853Z,40.90
2018-04-24T06:17:50.001Z,35.20
2018-04-24T06:20:17.769Z,35.30
2018-04-24T06:22:47.195Z,33.50
2018-04-24T06:25:16.296Z,34.60
2018-04-24T06:27:44.641Z,31.50
2018-04-24T06:30:12.552Z,35.03
2018-04-24T06:32:40.743Z,26.47
2018-04-24T06:35:08.577Z,33.50
2018-04-24T06:37:37.705Z,30.57
2018-04-24T06:40:06.114Z,33.67
2018-04-24T06:42:33.647Z,30.10
2018-04-24T06:45:01.310Z,30.37
2018-04-24T06:47:28.889Z,29.57
2018-04-24T06:49:57.973Z,24.80
2018-04-24T06:52:25.600Z,26.40
2018-04-24T06:54:54.727Z,25.80
2018-04-24T06:57:23.293Z,26.60
2018-04-24T06:59:51.865Z,25.07
2018-04-24T07:02:19.980Z,29.07
2018-04-24T07:04:47.840Z,25.30
2018-04-24T07:07:15.934Z,25.93
2018-04-24T07:09:44.571Z,27.37
2018-04-24T07:15:07.717Z,24.07
2018-04-24T07:17:36.212Z,26.43
2018-04-24T07:20:04.144Z,26.30
2018-04-24T07:22:31.660Z,25.10
2018-04-24T07:25:00.360Z,25.47
2018-04-24T07:27:28.922Z,25.30
2018-04-24T07:29:57.236Z,25.70
2018-04-24T07:32:26.548Z,23.07
2018-04-24T07:34:54.479Z,23.43
2018-04-24T07:37:25.094Z,21.40
2018-04-24T07:39:54.440Z,23.63
2018-04-24T07:42:22.042Z,20.13
2018-04-24T07:44:50.585Z,22.73
2018-04-24T07:47:18.804Z,22.60
2018-04-24T07:49:46.969Z,18.93
2018-04-24T07:52:15.769Z,19.20
2018-04-24T07:54:43.437Z,19.00
2018-04-24T07:57:11.350Z,18.00
2018-04-24T07:59:39.704Z,17.03
2018-04-24T08:02:08.830Z,18.77
2018-04-24T08:04:36.627Z,19.33
2018-04-24T08:07:04.752Z,18.70
2018-04-24T08:09:32.774Z,16.93
2018-04-24T08:12:00.552Z,17.43
2018-04-24T08:14:28.504Z,18.13
2018-04-24T08:16:56.333Z,17.90
2018-04-24T08:19:25.537Z,17.23
2018-04-24T08:21:53.190Z,16.50
2018-04-24T08:24:22.099Z,16.17
2018-04-24T08:26:49.876Z,14.80
2018-04-24T08:29:18.067Z,14.47
2018-04-24T08:31:45.920Z,16.17
2018-04-24T08:34:13.549Z,16.50
2018-04-24T08:36:45.533Z,15.30
2018-04-24T08:39:13.329Z,18.27
2018-04-24T08:41:41.007Z,15.10
2018-04-24T08:44:10.986Z,17.20
2018-04-24T08:46:38.810Z,16.63
2018-04-24T08:49:07.052Z,17.50
2018-04-24T08:51:35.098Z,16.20
2018-04-24T08:54:02.988Z,15.57
2018-04-24T08:56:30.738Z,16.40
2018-04-24T08:58:58.709Z,17.37
2018-04-24T09:01:26.447Z,15.97
2018-04-24T09:03:57.158Z,15.20
2018-04-24T09:06:24.973Z,16.60
2018-04-24T09:08:53.867Z,16.67
2018-04-24T09:11:22.093Z,16.10
2018-04-24T09:13:50.549Z,14.40
2018-04-24T09:16:18.459Z,13.00
2018-04-24T09:18:46.995Z,13.57
2018-04-24T09:21:15.095Z,15.00
2018-04-24T09:23:42.760Z,14.20
2018-04-24T09:26:10.802Z,14.90
2018-04-24T09:28:39.994Z,14.47
2018-04-24T09:31:07.831Z,13.57
2018-04-24T09:33:36.547Z,12.77
2018-04-24T09:36:09.238Z,13.63
2018-04-24T09:38:40.409Z,13.90
2018-04-24T09:41:08.029Z,14.73
2018-04-24T09:43:35.888Z,16.20
2018-04-24T09:46:03.592Z,15.20
2018-04-24T09:48:31.849Z,14.40
2018-04-24T09:50:59.429Z,11.83
2018-04-24T09:53:27.371Z,11.37
2018-04-24T09:56:01.671Z,12.37
2018-04-24T09:58:30.429Z,12.20
2018-04-24T10:00:58.137Z,11.20
2018-04-24T10:03:26.017Z,12.13
2018-04-24T10:05:56.445Z,11.33
2018-04-24T10:08:24.411Z,13.70
2018-04-24T10:10:53.307Z,13.70
2018-04-24T10:13:21.114Z,11.77
2018-04-24T10:15:55.735Z,12.43
2018-04-24T10:18:25.041Z,11.80
2018-04-24T10:20:53.247Z,11.90
2018-04-24T10:23:21.819Z,11.90
2018-04-24T10:25:50.867Z,12.40
2018-04-24T10:28:19.526Z,10.93
2018-04-24T10:30:47.585Z,10.70
2018-04-24T10:33:21.424Z,11.10
2018-04-24T10:35:50.191Z,9.90
2018-04-24T10:38:18.893Z,10.25
2018-04-24T10:40:46.953Z,10.70
2018-04-24T10:43:14.507Z,10.07
2018-04-24T10:45:42.948Z,8.97
2018-04-24T10:48:11.228Z,8.23
2018-04-24T10:50:38.940Z,7.60
2018-04-24T10:53:06.619Z,7.13
2018-04-24T10:55:34.451Z,6.67
2018-04-24T10:58:02.863Z,7.37
2018-04-24T11:00:30.508Z,6.73
2018-04-24T11:02:58.156Z,6.50
2018-04-24T11:05:29.078Z,6.90
2018-04-24T11:07:58.001Z,7.67
2018-04-24T11:10:27.079Z,8.00
2018-04-24T11:12:55.807Z,6.77
2018-04-24T11:15:23.437Z,6.70
2018-04-24T11:17:51.701Z,6.90
2018-04-24T11:20:20.029Z,7.40
2018-04-24T11:22:47.711Z,7.20
2018-04-24T11:25:15.490Z,6.10
2018-04-24T11:27:43.309Z,7.80
2018-04-24T11:30:11.919Z,5.50
2018-04-24T11:32:39.886Z,5.93
2018-04-24T11:35:07.622Z,6.07
2018-04-24T11:37:36.183Z,6.60
2018-04-24T11:40:04.086Z,6.00
2018-04-24T11:42:31.798Z,6.67
2018-04-24T11:44:59.522Z,7.00
2018-04-24T11:47:27.402Z,5.73
2018-04-24T11:49:55.364Z,6.30
2018-04-24T11:52:23.201Z,4.73
2018-04-24T11:54:51.610Z,4.90
2018-04-24T11:57:19.404Z,5.80
2018-04-24T11:59:47.180Z,5.10
2018-04-24T12:02:15.065Z,5.33
2018-04-24T12:04:43.630Z,5.40
2018-04-24T12:07:14.728Z,4.40
2018-04-24T12:09:42.622Z,4.30
2018-04-24T12:12:10.990Z,5.87
2018-04-24T12:14:38.549Z,4.60
2018-04-24T12:17:16.508Z,5.20
2018-04-24T12:19:44.108Z,4.43
2018-04-24T12:22:12.898Z,4.90
2018-04-24T12:24:47.522Z,4.60
2018-04-24T12:27:15.970Z,4.80
2018-04-24T12:29:44.260Z,3.93
2018-04-24T12:32:12.087Z,5.03
2018-04-24T12:34:43.511Z,4.60
2018-04-24T12:37:11.662Z,5.20
2018-04-24T12:39:40.245Z,4.50
2018-04-24T12:42:09.618Z,4.07
2018-04-24T12:44:38.125Z,3.87
2018-04-24T12:47:06.123Z,4.00
2018-04-24T12:49:35.707Z,4.10
2018-04-24T12:52:03.206Z,3.80
2018-04-24T12:54:31.102Z,4.23
2018-04-24T12:56:59.973Z,4.13
2018-04-24T12:59:28.580Z,4.20
2018-04-24T13:01:56.601Z,4.63
2018-04-24T13:04:25.137Z,4.17
2018-04-24T13:06:53.036Z,5.10
2018-04-24T13:09:20.871Z,4.00
2018-04-24T13:11:48.628Z,3.63
2018-04-24T13:14:16.329Z,3.50
2018-04-24T13:16:44.087Z,4.10
2018-04-24T13:19:11.850Z,3.47
2018-04-24T13:21:39.755Z,3.20
2018-04-24T13:24:08.217Z,2.90
2018-04-24T13:26:36.003Z,3.20
2018-04-24T13:29:04.576Z,3.60
2018-04-24T13:31:33.161Z,3.50
2018-04-24T13:34:02.122Z,3.30
2018-04-24T13:36:30.159Z,3.43
2018-04-24T13:38:58.037Z,3.30
2018-04-24T13:41:26.098Z,3.30
2018-04-24T13:43:53.969Z,2.83
2018-04-24T13:46:22.005Z,3.10
2018-04-24T13:48:50.746Z,2.67
2018-04-24T13:51:19.823Z,2.80
2018-04-24T13:53:47.703Z,2.97
2018-04-24T13:56:15.443Z,3.07
2018-04-24T13:58:43.962Z,2.80
2018-04-24T14:01:11.885Z,3.17
2018-04-24T14:03:39.722Z,4.13
2018-04-24T14:06:07.436Z,3.87
2018-04-24T14:08:35.448Z,3.30
2018-04-24T14:11:03.057Z,2.57
2018-04-24T14:13:31.479Z,2.40
2018-04-24T14:15:59.331Z,3.40
2018-04-24T14:18:27.114Z,3.83
2018-04-24T14:20:54.656Z,3.07
2018-04-24T14:23:23.426Z,3.43
2018-04-24T14:25:52.080Z,3.73
2018-04-24T14:28:20.881Z,3.23
2018-04-24T14:30:49.353Z,3.47
2018-04-24T14:33:17.184Z,2.67
2018-04-24T14:35:45.089Z,2.63
2018-04-24T14:38:12.873Z,3.00
2018-04-24T14:40:40.697Z,3.20
2018-04-24T14:43:08.481Z,3.53
2018-04-24T14:45:36.415Z,3.53
2018-04-24T14:48:03.959Z,3.67
2018-04-24T14:50:31.823Z,3.57
2018-04-24T14:52:59.641Z,3.27
2018-04-24T14:55:27.495Z,4.00
2018-04-24T14:57:55.534Z,3.80
2018-04-24T15:00:24.533Z,3.10
2018-04-24T15:02:53.354Z,3.90
2018-04-24T15:05:21.383Z,4.63
2018-04-24T15:07:50.317Z,3.67
2018-04-24T15:10:18.485Z,4.00
2018-04-24T15:12:48.445Z,4.00
2018-04-24T15:15:17.083Z,3.33
2018-04-24T15:17:44.815Z,3.60
2018-04-24T15:20:12.434Z,3.50
2018-04-24T15:22:40.014Z,4.30
2018-04-24T15:25:08.093Z,3.93
2018-04-24T15:27:36.909Z,3.50
2018-04-24T15:30:04.997Z,3.43
2018-04-24T15:32:32.957Z,3.43
2018-04-24T15:35:01.494Z,4.10
2018-04-24T15:37:29.159Z,3.83
2018-04-24T15:39:57.261Z,3.87
2018-04-24T15:42:24.939Z,3.70
2018-04-24T15:44:52.797Z,4.50
2018-04-24T15:47:20.712Z,4.30
2018-04-24T15:49:48.213Z,4.40
2018-04-24T15:52:16.712Z,4.80
2018-04-24T15:54:44.373Z,3.80
2018-04-24T15:57:12.376Z,4.00
2018-04-24T15:59:40.364Z,3.47
2018-04-24T16:02:08.057Z,3.50
2018-04-24T16:04:36.671Z,3.70
2018-04-24T16:07:04.648Z,4.03
2018-04-24T16:09:32.849Z,3.70
2018-04-24T16:12:00.746Z,4.00
2018-04-24T16:14:28.640Z,3.53
2018-04-24T16:16:57.520Z,3.93
2018-04-24T16:19:25.398Z,3.60
2018-04-24T16:21:54.092Z,3.00
2018-04-24T16:27:30.679Z,4.00
2018-04-24T16:30:05.899Z,5.07
2018-04-24T16:35:35.430Z,3.80
2018-04-24T16:40:56.234Z,4.10
2018-04-24T16:43:24.980Z,3.93
2018-04-24T16:45:52.684Z,3.80
2018-04-24T16:48:24.824Z,3.80
2018-04-24T16:50:54.525Z,4.30
2018-04-24T17:05:12.956Z,4.10
2018-04-24T17:07:40.607Z,3.90
2018-04-24T17:10:09.126Z,4.00
2018-04-24T17:12:38.696Z,3.93
2018-04-24T17:17:34.623Z,3.50
2018-04-24T17:20:02.302Z,3.80
2018-04-24T17:22:30.713Z,3.73
2018-04-24T17:24:58.384Z,3.73
2018-04-24T17:27:27.000Z,4.20
2018-04-24T17:29:54.780Z,3.73
2018-04-24T17:32:22.406Z,3.77
2018-04-24T17:34:49.994Z,3.83
2018-04-24T17:37:17.620Z,4.23
2018-04-24T17:39:45.059Z,3.97
2018-04-24T17:42:12.589Z,4.03
2018-04-24T17:44:40.093Z,3.90
2018-04-24T17:47:07.599Z,3.70
2018-04-24T17:49:35.159Z,4.17
2018-04-24T17:52:02.732Z,4.33
2018-04-24T17:54:30.257Z,4.27
2018-04-24T17:56:57.751Z,4.30
2018-04-24T17:59:25.250Z,4.10
2018-04-24T18:01:52.894Z,4.10
2018-04-24T18:04:21.161Z,4.20
2018-04-24T18:06:49.448Z,4.13
2018-04-24T18:09:17.715Z,4.40
2018-04-24T18:11:46.000Z,4.97
2018-04-24T18:14:14.288Z,4.30
2018-04-24T18:16:42.576Z,4.80
2018-04-24T18:19:10.155Z,4.43
2018-04-24T18:21:37.739Z,4.50
2018-04-24T18:31:27.216Z,4.60
2018-04-24T18:33:55.474Z,5.20
2018-04-24T18:36:23.745Z,4.27
2018-04-24T18:38:51.259Z,5.50
2018-04-24T18:43:45.853Z,4.80
2018-04-24T18:46:13.465Z,4.50
2018-04-24T18:48:40.975Z,4.40
2018-04-24T18:51:08.524Z,4.50
2018-04-24T18:53:36.073Z,5.17
2018-04-24T18:56:04.345Z,5.37
2018-04-24T18:58:33.634Z,4.73
2018-04-24T19:01:02.086Z,4.50
2018-04-24T19:03:29.780Z,5.03
2018-04-24T19:05:57.719Z,4.13
2018-04-24T19:08:26.080Z,5.47
2018-04-24T19:10:53.778Z,5.70
2018-04-24T19:13:22.086Z,4.97
2018-04-24T19:15:50.362Z,5.27
2018-04-24T19:18:19.091Z,4.83
2018-04-24T19:20:47.252Z,4.97
2018-04-24T19:23:15.478Z,4.90
2018-04-24T19:25:43.838Z,4.90
2018-04-24T19:28:12.188Z,4.30
2018-04-24T19:30:42.362Z,3.97
2018-04-24T19:33:09.918Z,4.73
2018-04-24T19:35:37.599Z,4.70
2018-04-24T19:38:05.706Z,5.07
2018-04-24T19:40:39.085Z,4.37
2018-04-24T19:43:07.394Z,4.60
2018-04-24T19:45:34.900Z,4.90
2018-04-24T19:48:02.427Z,4.37
2018-04-24T19:50:29.977Z,4.50
2018-04-24T19:52:57.485Z,4.60
2018-04-24T19:55:25.962Z,5.10
2018-04-24T19:57:53.480Z,4.40
2018-04-24T20:00:20.967Z,6.57
2018-04-24T20:02:48.466Z,5.40
2018-04-24T20:05:16.716Z,5.73
2018-04-24T20:07:44.208Z,5.90
2018-04-24T20:10:12.480Z,6.50
2018-04-24T20:12:41.319Z,6.13
2018-04-24T20:15:08.844Z,6.47
2018-04-24T20:17:36.337Z,6.70
2018-04-24T20:20:04.002Z,7.40
2018-04-24T20:22:32.643Z,6.80
2018-04-24T20:25:02.101Z,6.80
2018-04-24T20:27:29.825Z,6.23
2018-04-24T20:29:57.415Z,6.63
2018-04-24T20:32:24.937Z,6.40
2018-04-24T20:34:53.687Z,6.33
2018-04-24T20:37:23.035Z,5.87
2018-04-24T20:39:52.869Z,6.43
2018-04-24T20:42:21.356Z,6.03
2018-04-24T20:44:49.118Z,6.50
2018-04-24T20:47:16.661Z,6.47
2018-04-24T20:49:45.152Z,5.90
2018-04-24T20:52:12.914Z,5.80
2018-04-24T20:54:40.545Z,6.10
2018-04-24T20:57:08.189Z,7.00
2018-04-24T20:59:36.639Z,5.80
2018-04-24T21:02:05.047Z,5.97
2018-04-24T21:04:33.518Z,5.53
2018-04-24T21:07:01.057Z,6.30
2018-04-24T21:09:28.709Z,6.37
2018-04-24T21:11:56.614Z,6.40
2018-04-24T21:14:25.051Z,6.87
2018-04-24T21:16:54.086Z,6.03
2018-04-24T21:19:23.402Z,8.20
2018-04-24T21:21:51.012Z,6.83
2018-04-24T21:24:19.834Z,6.00
2018-04-24T21:26:47.385Z,6.53
2018-04-24T21:29:15.803Z,6.03
2018-04-24T21:31:43.334Z,6.30
2018-04-24T21:34:10.856Z,6.97
2018-04-24T21:36:39.133Z,6.73
2018-04-24T21:39:07.846Z,6.10
2018-04-24T21:41:35.594Z,6.00
2018-04-24T21:44:05.259Z,5.90
2018-04-24T21:46:33.088Z,5.90
2018-04-24T21:49:00.832Z,6.30
2018-04-24T21:51:30.222Z,6.50
2018-04-24T21:53:59.353Z,6.43
2018-04-24T21:56:27.080Z,6.23
2018-04-24T21:58:56.492Z,6.53
2018-04-24T22:01:25.048Z,6.20
2018-04-24T22:03:52.825Z,6.00
2018-04-24T22:06:23.954Z,6.87
2018-04-24T22:08:51.838Z,6.93
2018-04-24T22:11:19.532Z,7.07
2018-04-24T22:13:48.372Z,5.80
2018-04-24T22:16:16.043Z,6.30
2018-04-24T22:18:43.771Z,7.20
2018-04-24T22:21:11.471Z,6.20
2018-04-24T22:23:39.808Z,5.87
2018-04-24T22:26:07.739Z,7.70
2018-04-24T22:28:35.478Z,8.50
2018-04-24T22:31:03.195Z,7.60
2018-04-24T22:33:31.718Z,7.20
2018-04-24T22:35:59.638Z,6.90
2018-04-24T22:38:28.267Z,7.60
2018-04-24T22:40:56.536Z,7.30
2018-04-24T22:43:25.057Z,8.17
2018-04-24T22:45:52.800Z,8.30
2018-04-24T22:48:20.520Z,6.90
2018-04-24T22:50:49.905Z,8.10
2018-04-24T22:53:17.770Z,8.00
2018-04-24T22:55:45.600Z,8.27
2018-04-24T22:58:13.482Z,8.00
2018-04-24T23:00:41.206Z,6.90
2018-04-24T23:03:09.774Z,8.10
2018-04-24T23:05:41.951Z,7.30
2018-04-24T23:08:11.638Z,7.30
2018-04-24T23:10:52.154Z,6.70
2018-04-24T23:13:31.695Z,7.13
2018-04-24T23:18:56.980Z,6.80
2018-04-24T23:21:25.838Z,7.30
2018-04-24T23:23:54.394Z,6.50
2018-04-24T23:26:22.616Z,7.87
2018-04-24T23:28:55.172Z,7.10
2018-04-24T23:31:22.880Z,7.10
2018-04-24T23:33:51.294Z,7.13
2018-04-24T23:36:18.812Z,6.73
2018-04-24T23:38:46.502Z,6.10
2018-04-24T23:41:14.335Z,6.80
2018-04-24T23:43:42.376Z,6.35
2018-04-24T23:46:09.931Z,6.53
2018-04-24T23:48:37.710Z,6.10
2018-04-24T23:51:05.450Z,6.30
2018-04-24T23:53:33.878Z,6.10
2018-04-24T23:56:01.696Z,5.80
2018-04-24T23:58:29.498Z,5.70
